Time;durP1;ratioP1;P1;durP2;ratioP2;P2;SDS_P1;SDS_P2;PMS_P1;PMS_P2;Temp;Humidity;BMP_temperature;BMP_pressure;BME280_temperature;BME280_humidity;BME280_pressure;Samples;Min_cycle;Max_cycle;Signal;HPM_P1;HPM_P2
2023/05/05 00:00:08;;;;;;;15.85;11.27;;;;;;;16.75;73.67;101333.31;5027150;28;20040;-74
2023/05/05 00:02:33;;;;;;;12.88;11.30;;;;;;;16.71;73.76;101333.72;5030030;28;20030;-75
2023/05/05 00:04:58;;;;;;;15.13;11.48;;;;;;;16.62;74.16;101335.38;5033165;28;20112;-74
2023/05/05 00:07:24;;;;;;;13.30;11.35;;;;;;;16.57;74.65;101334.97;5036238;28;20036;-74
2023/05/05 00:09:49;;;;;;;13.68;12.10;;;;;;;16.54;74.89;101343.22;5041856;28;20032;-74
2023/05/05 00:12:14;;;;;;;16.38;11.75;;;;;;;16.45;75.86;101344.06;5019328;28;20064;-74
2023/05/05 00:14:40;;;;;;;13.93;10.90;;;;;;;16.42;76.51;101345.19;5028287;28;20029;-74
2023/05/05 00:17:05;;;;;;;12.82;11.57;;;;;;;16.42;76.69;101352.31;5032748;28;20029;-74
2023/05/05 00:19:32;;;;;;;16.63;12.13;;;;;;;16.39;77.55;101355.22;5032843;28;20486;-73
2023/05/05 00:22:00;;;;;;;15.00;13.20;;;;;;;16.37;78.33;101351.88;5032985;28;20109;-74
2023/05/05 00:24:26;;;;;;;13.68;12.18;;;;;;;16.35;78.56;101352.00;5031281;28;20032;-74
2023/05/05 00:26:51;;;;;;;15.15;13.55;;;;;;;16.34;78.85;101349.47;5035754;28;20029;-74
2023/05/05 00:29:20;;;;;;;16.08;13.68;;;;;;;16.30;79.50;101352.41;5015360;28;20172;-73
2023/05/05 00:31:46;;;;;;;17.73;14.27;;;;;;;16.29;80.07;101347.25;5014072;28;20470;-74
2023/05/05 00:34:26;;;;;;;16.23;14.43;;;;;;;16.26;80.23;101348.38;5025534;28;20032;-74
2023/05/05 00:36:54;;;;;;;16.08;14.23;;;;;;;16.19;80.82;101344.59;5032991;28;20032;-74
2023/05/05 00:39:20;;;;;;;19.15;14.40;;;;;;;16.13;81.14;101345.13;5033378;28;20232;-74
2023/05/05 00:41:45;;;;;;;18.90;14.32;;;;;;;16.12;80.87;101351.44;5030955;28;20050;-74
2023/05/05 00:44:13;;;;;;;17.25;15.25;;;;;;;16.06;81.50;101349.31;5029710;28;20104;-74
2023/05/05 00:46:41;;;;;;;16.70;15.05;;;;;;;16.05;81.80;101362.72;5011110;28;20053;-74
2023/05/05 00:49:07;;;;;;;18.48;15.40;;;;;;;16.02;82.11;101361.19;5011700;28;20669;-74
2023/05/05 00:51:32;;;;;;;17.00;15.43;;;;;;;15.99;82.79;101366.75;5011935;28;20029;-74
2023/05/05 00:53:58;;;;;;;17.33;15.60;;;;;;;15.96;82.83;101362.53;5024160;28;20441;-75
2023/05/05 00:56:26;;;;;;;22.38;15.80;;;;;;;15.96;83.21;101367.03;5031861;28;20025;-75
2023/05/05 00:58:51;;;;;;;16.98;15.20;;;;;;;15.93;82.91;101364.63;5032695;28;20029;-75
2023/05/05 01:01:17;;;;;;;17.77;15.80;;;;;;;15.86;83.98;101363.50;5028174;28;20056;-75
2023/05/05 01:03:43;;;;;;;17.23;15.55;;;;;;;15.79;84.06;101354.41;5031957;28;20060;-75
2023/05/05 01:06:32;;;;;;;18.60;16.63;;;;;;;15.79;83.24;101357.06;5031699;28;20051;-75
2023/05/05 01:09:07;;;;;;;17.13;15.35;;;;;;;15.64;84.93;101361.91;5034952;28;20033;-75
2023/05/05 01:11:54;;;;;;;19.05;16.63;;;;;;;15.63;84.17;101369.03;5030428;28;20037;-75
2023/05/05 01:14:38;;;;;;;19.48;16.65;;;;;;;15.51;85.38;101364.72;5031323;28;20044;-75
2023/05/05 01:17:18;;;;;;;18.60;16.70;;;;;;;15.47;85.30;101367.78;5024279;28;20040;-75
2023/05/05 01:19:43;;;;;;;17.70;15.98;;;;;;;15.42;86.17;101370.00;5033367;28;20486;-75
2023/05/05 01:22:23;;;;;;;19.23;17.23;;;;;;;15.43;86.08;101359.25;5031710;28;20033;-75
2023/05/05 01:25:07;;;;;;;18.23;16.42;;;;;;;15.44;86.58;101360.09;5033150;28;20120;-75
2023/05/05 01:27:49;;;;;;;19.55;17.52;;;;;;;15.44;86.56;101350.31;5014151;28;20355;-75
2023/05/05 01:30:42;;;;;;;18.77;16.75;;;;;;;15.47;85.67;101358.00;5031695;28;20398;-77
2023/05/05 01:33:13;;;;;;;20.92;16.67;;;;;;;15.39;87.10;101352.53;5031702;28;20099;-75
2023/05/05 01:35:42;;;;;;;18.15;16.25;;;;;;;15.34;87.85;101368.00;5024884;28;20080;-74
2023/05/05 01:38:13;;;;;;;21.67;16.65;;;;;;;15.32;88.45;101364.66;5011311;28;20418;-75
2023/05/05 01:40:46;;;;;;;20.35;16.55;;;;;;;15.26;88.95;101363.38;5014783;28;20025;-75
2023/05/05 01:43:16;;;;;;;18.70;16.90;;;;;;;15.21;89.17;101365.56;5028848;28;20405;-75
2023/05/05 01:45:43;;;;;;;17.52;15.73;;;;;;;15.22;89.25;101356.66;5030658;28;20036;-75
2023/05/05 01:48:11;;;;;;;18.77;16.92;;;;;;;15.11;89.41;101358.50;5031427;28;20038;-75
2023/05/05 01:50:40;;;;;;;18.02;16.33;;;;;;;15.14;89.22;101356.44;5027812;28;20029;-75
2023/05/05 01:53:08;;;;;;;18.38;16.52;;;;;;;15.07;89.56;101359.75;5016225;28;20021;-75
2023/05/05 01:55:35;;;;;;;18.70;16.90;;;;;;;14.97;90.24;101363.16;5031702;28;20077;-74
2023/05/05 01:58:05;;;;;;;19.75;17.73;;;;;;;14.87;90.51;101359.63;5030218;28;20029;-75
2023/05/05 02:00:31;;;;;;;20.05;17.95;;;;;;;14.81;90.93;101354.84;5029199;28;20029;-74
2023/05/05 02:03:03;;;;;;;20.17;18.00;;;;;;;14.77;91.13;101369.28;5032595;28;20022;-74
2023/05/05 02:05:31;;;;;;;19.40;17.52;;;;;;;14.68;91.64;101370.06;5029902;28;20056;-74
2023/05/05 02:07:59;;;;;;;20.10;18.25;;;;;;;14.60;91.41;101372.50;5032365;28;20080;-74
2023/05/05 02:10:26;;;;;;;19.45;17.60;;;;;;;14.57;91.98;101367.47;5039658;28;20046;-74
2023/05/05 02:12:52;;;;;;;26.52;18.85;;;;;;;14.45;92.82;101363.19;5027143;28;20112;-75
2023/05/05 02:15:20;;;;;;;20.55;18.42;;;;;;;14.38;92.99;101374.22;5029787;28;20025;-75
2023/05/05 02:17:50;;;;;;;20.85;17.90;;;;;;;14.33;93.01;101381.69;5033276;28;20025;-75
2023/05/05 02:20:17;;;;;;;20.65;18.48;;;;;;;14.26;93.12;101387.59;5028949;28;20026;-75
2023/05/05 02:22:43;;;;;;;21.13;18.30;;;;;;;14.22;93.00;101387.03;5031674;28;20090;-74
2023/05/05 02:25:18;;;;;;;19.67;17.85;;;;;;;14.11;93.77;101397.63;5029383;28;20042;-75
2023/05/05 02:27:46;;;;;;;19.60;17.67;;;;;;;14.07;93.83;101391.75;5024364;28;20064;-75
2023/05/05 02:30:16;;;;;;;20.63;18.48;;;;;;;13.98;94.13;101391.63;5031260;28;20026;-75
2023/05/05 02:32:56;;;;;;;20.00;17.88;;;;;;;13.93;94.03;101396.44;5029725;28;20009;-75
2023/05/05 02:35:32;;;;;;;20.58;18.38;;;;;;;13.84;94.27;101405.94;5030037;28;20108;-74
2023/05/05 02:38:09;;;;;;;20.05;18.15;;;;;;;13.78;94.61;101396.69;5031648;28;20029;-75
2023/05/05 02:40:36;;;;;;;23.40;18.73;;;;;;;13.69;95.10;101408.00;5031093;28;20022;-75
2023/05/05 02:43:10;;;;;;;22.02;19.83;;;;;;;13.70;95.43;101414.13;5027114;28;20606;-75
2023/05/05 02:45:36;;;;;;;21.50;19.35;;;;;;;13.64;95.33;101415.44;5019782;28;20013;-75
2023/05/05 02:48:05;;;;;;;21.40;19.13;;;;;;;13.55;95.38;101421.44;5027195;28;20036;-75
2023/05/05 02:50:30;;;;;;;21.65;19.40;;;;;;;13.52;95.63;101410.25;5029714;28;20045;-75
2023/05/05 02:52:58;;;;;;;19.88;17.67;;;;;;;13.48;95.54;101422.88;5031445;28;20122;-75
2023/05/05 02:55:29;;;;;;;20.90;18.80;;;;;;;13.36;96.04;101410.59;5029634;28;20025;-75
2023/05/05 02:58:08;;;;;;;20.27;18.20;;;;;;;13.41;95.84;101411.09;5029718;28;20049;-75
2023/05/05 03:00:42;;;;;;;23.42;18.48;;;;;;;13.35;96.10;101408.91;5031057;28;20033;-75
2023/05/05 03:03:35;;;;;;;20.50;18.40;;;;;;;13.37;95.58;101409.63;5013269;28;20072;-74
2023/05/05 03:06:35;;;;;;;21.58;18.83;;;;;;;13.33;94.94;101411.69;5018311;28;20044;-75
2023/05/05 03:09:11;;;;;;;19.23;17.30;;;;;;;13.20;96.34;101400.34;5046620;28;20107;-74
2023/05/05 03:11:53;;;;;;;19.20;17.30;;;;;;;13.15;96.34;101408.59;5029296;28;20021;-75
2023/05/05 03:14:20;;;;;;;19.98;18.10;;;;;;;13.11;96.39;101409.78;5028536;28;20547;-74
2023/05/05 03:16:47;;;;;;;21.33;19.13;;;;;;;13.08;97.03;101412.66;5025374;28;20033;-74
2023/05/05 03:19:16;;;;;;;20.33;18.23;;;;;;;12.99;97.73;101413.34;5013677;28;20533;-74
2023/05/05 03:21:41;;;;;;;19.40;17.50;;;;;;;13.02;97.05;101418.41;5010978;28;20033;-75
2023/05/05 03:24:13;;;;;;;19.27;17.33;;;;;;;12.95;97.54;101422.47;5009816;28;20430;-75
2023/05/05 03:26:39;;;;;;;19.40;17.40;;;;;;;12.97;97.52;101430.28;5044708;28;20044;-75
2023/05/05 03:29:05;;;;;;;19.55;17.40;;;;;;;12.86;98.42;101420.50;5025559;28;20291;-74
2023/05/05 03:31:31;;;;;;;18.63;16.77;;;;;;;12.84;98.24;101414.50;5028246;28;20025;-75
2023/05/05 03:33:56;;;;;;;19.50;17.55;;;;;;;12.86;98.37;101433.72;5023000;28;20471;-75
2023/05/05 03:36:22;;;;;;;19.15;17.15;;;;;;;12.81;98.26;101423.50;5028938;28;20331;-75
2023/05/05 03:38:47;;;;;;;18.52;16.83;;;;;;;12.85;98.37;101421.47;5027566;28;20079;-75
2023/05/05 03:41:13;;;;;;;20.48;17.48;;;;;;;12.78;98.53;101422.84;5029041;28;20529;-74
2023/05/05 03:43:38;;;;;;;19.20;17.30;;;;;;;12.70;98.87;101427.88;5029375;28;20026;-74
2023/05/05 03:46:04;;;;;;;21.02;17.67;;;;;;;12.72;98.81;101428.59;5027118;28;20033;-76
2023/05/05 03:48:30;;;;;;;20.80;17.98;;;;;;;12.69;99.02;101427.03;5030165;28;20474;-74
2023/05/05 03:50:55;;;;;;;19.83;17.63;;;;;;;12.63;99.57;101424.00;5026665;28;20504;-74
2023/05/05 03:53:21;;;;;;;19.80;17.80;;;;;;;12.62;99.41;101424.94;5028426;28;20018;-74
2023/05/05 03:55:46;;;;;;;20.73;18.05;;;;;;;12.59;100.00;101427.81;5029325;28;20437;-74
2023/05/05 03:58:12;;;;;;;20.88;18.75;;;;;;;12.53;100.00;101435.22;5027555;28;20583;-74
2023/05/05 04:00:37;;;;;;;19.50;17.45;;;;;;;12.49;100.00;101443.50;5026149;28;20505;-74
2023/05/05 04:03:02;;;;;;;19.80;17.92;;;;;;;12.50;100.00;101442.53;5007364;28;20132;-75
2023/05/05 04:05:28;;;;;;;19.67;17.70;;;;;;;12.49;100.00;101441.69;5017657;28;20029;-74
2023/05/05 04:07:53;;;;;;;19.02;17.13;;;;;;;12.46;100.00;101446.34;5024432;28;20390;-74
2023/05/05 04:10:23;;;;;;;18.40;16.27;;;;;;;12.48;100.00;101450.56;5029023;28;20629;-75
2023/05/05 04:12:48;;;;;;;19.27;17.35;;;;;;;12.40;100.00;101447.63;5027917;28;20069;-75
2023/05/05 04:15:13;;;;;;;20.42;16.73;;;;;;;12.37;100.00;101445.19;5028156;28;20194;-75
2023/05/05 04:17:39;;;;;;;19.75;17.27;;;;;;;12.39;100.00;101445.94;5028300;28;20545;-75
2023/05/05 04:20:14;;;;;;;18.67;16.80;;;;;;;12.36;100.00;101461.97;5028282;28;20029;-74
2023/05/05 04:22:39;;;;;;;17.55;15.55;;;;;;;12.38;100.00;101449.53;5028562;28;20025;-75
2023/05/05 04:25:05;;;;;;;18.30;16.42;;;;;;;12.31;100.00;101448.28;5022522;28;20359;-75
2023/05/05 04:27:30;;;;;;;18.30;16.40;;;;;;;12.34;100.00;101452.50;5036110;28;20087;-75
2023/05/05 04:29:56;;;;;;;17.88;16.17;;;;;;;12.33;100.00;101454.28;5029110;28;20533;-75
2023/05/05 04:32:25;;;;;;;18.05;15.85;;;;;;;12.33;100.00;101462.19;5028483;28;20030;-75
2023/05/05 04:34:57;;;;;;;19.33;16.50;;;;;;;12.35;100.00;101462.94;5028681;28;20478;-75
2023/05/05 04:37:24;;;;;;;16.97;15.37;;;;;;;12.33;100.00;101456.94;5027785;28;20029;-74
2023/05/05 04:39:49;;;;;;;16.95;15.30;;;;;;;12.35;100.00;101460.28;5028467;28;20409;-74
2023/05/05 04:42:16;;;;;;;16.20;14.60;;;;;;;12.48;100.00;101460.28;5010203;28;20534;-74
2023/05/05 04:44:42;;;;;;;16.35;14.75;;;;;;;12.62;99.26;101448.72;5028917;28;20029;-74
2023/05/05 04:47:07;;;;;;;17.00;14.80;;;;;;;12.61;98.33;101455.78;5028566;28;20540;-74
2023/05/05 04:49:36;;;;;;;17.80;14.73;;;;;;;12.58;98.66;101460.44;5029743;28;20022;-73
2023/05/05 04:52:05;;;;;;;17.75;15.32;;;;;;;12.55;98.81;101450.97;5031254;28;20017;-74
2023/05/05 04:54:37;;;;;;;15.98;14.45;;;;;;;12.50;99.28;101453.94;5032684;28;20032;-74
2023/05/05 04:57:06;;;;;;;16.52;14.73;;;;;;;12.52;99.07;101459.94;5022744;28;20021;-75
2023/05/05 04:59:32;;;;;;;16.45;14.27;;;;;;;12.44;99.03;101450.91;5029179;28;20029;-74
2023/05/05 05:01:58;;;;;;;16.55;14.95;;;;;;;12.46;99.42;101454.28;5026952;28;20030;-75
2023/05/05 05:04:24;;;;;;;18.15;15.18;;;;;;;12.42;99.60;101448.38;5030263;28;20041;-74
2023/05/05 05:06:50;;;;;;;16.90;15.32;;;;;;;12.40;99.96;101442.34;5030988;28;20029;-75
2023/05/05 05:09:15;;;;;;;17.38;15.57;;;;;;;12.44;99.95;101441.19;5032301;28;20032;-74
2023/05/05 05:11:41;;;;;;;16.33;14.77;;;;;;;12.44;99.63;101443.81;5027692;28;20033;-75
2023/05/05 05:14:15;;;;;;;18.88;15.57;;;;;;;12.48;99.96;101441.81;5028379;28;20730;-74
2023/05/05 05:16:40;;;;;;;18.95;15.32;;;;;;;12.45;99.93;101440.22;5029792;28;20026;-74
2023/05/05 05:19:05;;;;;;;17.65;15.68;;;;;;;12.48;100.00;101437.38;5012213;28;20048;-74
2023/05/05 05:21:31;;;;;;;18.17;15.52;;;;;;;12.45;100.00;101437.59;5021407;28;20379;-74
2023/05/05 05:23:56;;;;;;;17.63;15.80;;;;;;;12.49;100.00;101439.06;5028585;28;20087;-74
2023/05/05 05:26:22;;;;;;;18.98;16.98;;;;;;;12.48;100.00;101445.28;5033530;28;20281;-74
2023/05/05 05:28:47;;;;;;;18.05;15.90;;;;;;;12.58;100.00;101439.34;5028356;28;20156;-74
2023/05/05 05:31:13;;;;;;;17.95;16.15;;;;;;;12.63;100.00;101438.03;5030518;28;20108;-74
2023/05/05 05:33:38;;;;;;;18.02;15.98;;;;;;;12.70;100.00;101439.28;5029692;28;20036;-74
2023/05/05 05:36:04;;;;;;;18.52;16.58;;;;;;;12.76;100.00;101457.31;5029146;28;21989;-74
2023/05/05 05:38:29;;;;;;;19.75;16.40;;;;;;;12.88;99.53;101457.38;5028775;28;20071;-75
2023/05/05 05:40:55;;;;;;;19.10;17.08;;;;;;;12.99;99.34;101454.78;5031613;28;20029;-75
2023/05/05 05:43:20;;;;;;;19.45;16.65;;;;;;;13.02;99.04;101460.66;5029562;28;20032;-75
2023/05/05 05:45:45;;;;;;;19.60;17.50;;;;;;;13.14;98.82;101475.59;5011594;28;20026;-75
2023/05/05 05:48:23;;;;;;;17.67;15.77;;;;;;;13.24;98.36;101493.47;5029969;28;20458;-74
2023/05/05 05:50:51;;;;;;;19.02;16.25;;;;;;;13.31;97.88;101498.16;5029462;28;20060;-74
2023/05/05 05:53:17;;;;;;;17.42;15.50;;;;;;;13.43;97.98;101501.69;5028625;28;20375;-75
2023/05/05 05:55:46;;;;;;;17.75;15.43;;;;;;;13.50;96.95;101505.53;5031738;28;20021;-74
2023/05/05 05:58:11;;;;;;;17.05;15.40;;;;;;;13.60;96.73;101509.16;5027956;28;20417;-75
2023/05/05 06:00:40;;;;;;;17.30;15.52;;;;;;;13.70;96.48;101515.47;5027190;28;20130;-75
2023/05/05 06:03:06;;;;;;;17.27;15.50;;;;;;;13.81;95.74;101517.28;5014505;28;20104;-75
2023/05/05 06:05:35;;;;;;;15.70;14.13;;;;;;;13.92;95.51;101522.56;5030899;28;20087;-75
2023/05/05 06:08:00;;;;;;;16.75;14.30;;;;;;;14.03;95.48;101532.34;5029455;28;20029;-75
2023/05/05 06:10:38;;;;;;;17.73;14.45;;;;;;;14.14;95.38;101535.00;5030609;28;20375;-75
2023/05/05 06:13:04;;;;;;;16.60;14.90;;;;;;;14.27;95.25;101525.13;5030199;28;20021;-75
2023/05/05 06:15:57;;;;;;;19.80;16.25;;;;;;;14.36;94.81;101532.34;5031930;28;20028;-74
2023/05/05 06:18:22;;;;;;;19.75;15.55;;;;;;;14.48;94.37;101535.03;5012156;28;20048;-75
2023/05/05 06:20:56;;;;;;;22.95;17.65;;;;;;;14.57;93.84;101542.25;5011400;28;20101;-75
2023/05/05 06:23:29;;;;;;;18.77;16.17;;;;;;;14.69;93.90;101539.44;5010195;28;20383;-75
2023/05/05 06:25:55;;;;;;;20.30;16.48;;;;;;;14.77;92.91;101553.88;5027477;28;20489;-75
2023/05/05 06:28:20;;;;;;;20.75;16.50;;;;;;;14.88;92.82;101541.47;5035439;28;20082;-74
2023/05/05 06:30:47;;;;;;;17.77;15.93;;;;;;;14.96;93.04;101539.03;5032123;28;20056;-74
2023/05/05 06:33:12;;;;;;;16.40;14.75;;;;;;;15.05;92.14;101535.63;5019313;28;20033;-75
2023/05/05 06:36:01;;;;;;;18.15;16.25;;;;;;;15.14;91.80;101535.84;5012314;28;20017;-75
2023/05/05 06:38:27;;;;;;;18.75;16.80;;;;;;;15.17;90.66;101525.81;5011804;28;20108;-75
2023/05/05 06:40:58;;;;;;;19.35;16.40;;;;;;;15.25;90.61;101528.72;5010831;28;20120;-75
2023/05/05 06:43:27;;;;;;;19.02;15.95;;;;;;;15.32;90.54;101529.88;5011348;28;20112;-75
2023/05/05 06:45:58;;;;;;;17.55;15.63;;;;;;;15.43;90.21;101531.63;5011810;28;20034;-75
2023/05/05 06:48:24;;;;;;;19.77;16.30;;;;;;;15.51;89.64;101530.97;5026227;28;20033;-76
2023/05/05 06:50:49;;;;;;;21.10;16.15;;;;;;;15.63;89.62;101538.81;5019679;28;20040;-76
2023/05/05 06:53:35;;;;;;;17.70;15.60;;;;;;;15.78;89.07;101534.00;5010808;28;20028;-75
2023/05/05 06:56:00;;;;;;;18.00;15.68;;;;;;;16.03;88.13;101532.75;5010401;28;20053;-75
2023/05/05 06:58:26;;;;;;;16.02;14.25;;;;;;;16.23;86.87;101531.88;5010408;28;20025;-76
2023/05/05 07:00:55;;;;;;;16.10;12.65;;;;;;;16.41;84.70;101534.75;5010951;28;20030;-75
2023/05/05 07:03:21;;;;;;;13.70;11.68;;;;;;;16.56;84.52;101538.69;5013878;28;20030;-76
2023/05/05 07:05:58;;;;;;;15.25;11.70;;;;;;;16.83;83.76;101534.63;5029688;28;20063;-75
2023/05/05 07:08:23;;;;;;;13.85;10.93;;;;;;;17.06;81.33;101545.81;5039938;28;20040;-76
2023/05/05 07:10:49;;;;;;;13.63;10.88;;;;;;;17.23;80.23;101542.50;5044433;28;20030;-75
2023/05/05 07:13:21;;;;;;;13.20;9.73;;;;;;;17.59;78.13;101548.91;5028871;28;20052;-75
2023/05/05 07:15:50;;;;;;;14.23;10.15;;;;;;;17.99;75.82;101546.06;5025573;28;20033;-75
2023/05/05 07:18:19;;;;;;;12.38;9.52;;;;;;;18.17;74.39;101555.00;5028388;28;20017;-85
2023/05/05 07:20:45;;;;;;;13.20;9.65;;;;;;;18.12;73.46;101551.09;5029192;28;20027;-76
2023/05/05 07:23:10;;;;;;;12.98;9.63;;;;;;;18.10;74.13;101547.72;5029410;28;20112;-76
2023/05/05 07:25:37;;;;;;;11.75;8.88;;;;;;;18.08;73.39;101550.53;5035206;28;20397;-76
2023/05/05 07:28:03;;;;;;;13.60;9.27;;;;;;;18.06;73.21;101552.50;5049395;28;20028;-75
2023/05/05 07:30:38;;;;;;;12.75;8.95;;;;;;;18.09;74.09;101552.22;5049300;28;20025;-76
2023/05/05 07:33:03;;;;;;;12.38;8.93;;;;;;;18.10;72.49;101553.91;5043649;28;20569;-75
2023/05/05 07:35:30;;;;;;;12.48;8.23;;;;;;;17.97;72.11;101547.19;5012359;28;20028;-76
2023/05/05 07:37:58;;;;;;;12.55;8.18;;;;;;;17.98;73.90;101549.72;5014716;28;20103;-75
2023/05/05 07:40:24;;;;;;;11.60;8.20;;;;;;;18.26;73.38;101541.78;5025650;28;20033;-75
2023/05/05 07:42:52;;;;;;;10.30;8.35;;;;;;;18.41;72.91;101537.63;5031370;28;20504;-76
2023/05/05 07:45:18;;;;;;;11.43;8.25;;;;;;;18.79;71.39;101528.63;5031769;28;20022;-75
2023/05/05 07:47:43;;;;;;;10.48;8.45;;;;;;;19.20;68.83;101524.53;5033978;28;20035;-75
2023/05/05 07:50:09;;;;;;;11.98;8.57;;;;;;;19.30;68.71;101527.16;5025126;28;20029;-75
2023/05/05 07:52:34;;;;;;;11.93;8.77;;;;;;;19.53;67.56;101530.19;5029187;28;20023;-75
2023/05/05 07:55:03;;;;;;;14.02;8.60;;;;;;;19.19;66.91;101525.53;5028463;28;20112;-75
2023/05/05 07:57:28;;;;;;;9.60;7.32;;;;;;;19.58;66.17;101519.88;5017753;28;20045;-75
2023/05/05 07:59:53;;;;;;;10.65;8.20;;;;;;;20.04;65.53;101524.06;5028673;28;20474;-76
2023/05/05 08:02:20;;;;;;;12.07;8.05;;;;;;;20.62;64.27;101521.50;5029251;28;20429;-76
2023/05/05 08:04:46;;;;;;;8.27;6.50;;;;;;;21.17;62.34;101523.59;5028118;28;20029;-75
2023/05/05 08:07:12;;;;;;;10.35;6.55;;;;;;;21.35;59.74;101522.66;5025232;28;20029;-75
2023/05/05 08:09:37;;;;;;;13.32;7.30;;;;;;;21.35;60.76;101520.81;5027125;28;20025;-75
2023/05/05 08:12:07;;;;;;;11.38;6.35;;;;;;;21.78;58.91;101529.47;5028418;28;20529;-75
2023/05/05 08:14:32;;;;;;;9.25;5.90;;;;;;;21.92;57.00;101514.53;5029640;28;20453;-75
2023/05/05 08:17:01;;;;;;;10.48;5.70;;;;;;;21.84;57.12;101535.00;5030054;28;20053;-75
2023/05/05 08:19:27;;;;;;;8.32;5.57;;;;;;;21.78;56.92;101532.16;5028576;28;20519;-75
2023/05/05 08:21:53;;;;;;;7.68;4.85;;;;;;;21.94;56.81;101529.44;5029751;28;20053;-76
2023/05/05 08:24:18;;;;;;;6.03;3.85;;;;;;;21.95;55.42;101532.97;5030689;28;20108;-76
2023/05/05 08:26:43;;;;;;;9.43;4.60;;;;;;;21.79;56.80;101532.00;5036430;28;20048;-76
2023/05/05 08:29:10;;;;;;;9.07;4.07;;;;;;;21.92;55.38;101531.47;5032545;28;20080;-76
2023/05/05 08:31:35;;;;;;;4.93;2.50;;;;;;;21.77;54.11;101538.53;5033123;28;20040;-74
2023/05/05 08:34:03;;;;;;;6.95;3.05;;;;;;;21.62;55.90;101535.72;5030130;28;20096;-74
2023/05/05 08:36:28;;;;;;;6.57;3.50;;;;;;;21.55;55.13;101535.50;5031826;28;20071;-74
2023/05/05 08:38:54;;;;;;;6.40;3.45;;;;;;;21.16;55.80;101537.97;5031841;28;20025;-74
2023/05/05 08:41:22;;;;;;;5.75;3.40;;;;;;;21.13;57.75;101530.28;5031046;28;20053;-75
2023/05/05 08:43:49;;;;;;;7.25;3.63;;;;;;;20.79;58.06;101541.06;5030352;28;20033;-75
2023/05/05 08:46:15;;;;;;;4.45;3.40;;;;;;;20.81;58.69;101536.44;5020640;28;20432;-75
2023/05/05 08:48:43;;;;;;;5.95;3.28;;;;;;;20.66;58.71;101538.03;5029202;28;20087;-75
2023/05/05 08:51:15;;;;;;;5.43;3.47;;;;;;;20.47;60.03;101541.81;5031276;28;20026;-75
2023/05/05 08:53:53;;;;;;;6.35;3.58;;;;;;;20.56;60.49;101537.34;5019526;28;20018;-75
2023/05/05 08:56:19;;;;;;;5.65;2.97;;;;;;;20.60;59.81;101534.19;5027817;28;20045;-75
2023/05/05 08:58:46;;;;;;;4.80;2.92;;;;;;;20.45;59.87;101540.31;5024795;28;20025;-75
2023/05/05 09:01:13;;;;;;;6.43;3.50;;;;;;;20.31;59.63;101536.34;5024843;28;20478;-76
2023/05/05 09:03:39;;;;;;;6.43;3.50;;;;;;;20.20;59.74;101531.31;5014735;28;20113;-76
2023/05/05 09:06:05;;;;;;;5.97;3.70;;;;;;;20.31;61.17;101533.69;5025396;28;20033;-75
2023/05/05 09:08:32;;;;;;;5.32;3.75;;;;;;;20.31;60.21;101534.53;5039205;28;20537;-76
2023/05/05 09:11:05;;;;;;;4.97;3.53;;;;;;;20.46;60.70;101542.81;5031333;28;20032;-76
2023/05/05 09:13:31;;;;;;;5.15;3.30;;;;;;;20.47;60.84;101539.16;5028238;28;20033;-74
2023/05/05 09:16:00;;;;;;;5.05;3.35;;;;;;;20.53;60.51;101548.38;5031435;28;20047;-75
2023/05/05 09:18:26;;;;;;;12.38;4.32;;;;;;;20.59;61.44;101548.56;5031791;28;20032;-75
2023/05/05 09:20:51;;;;;;;7.85;3.83;;;;;;;20.66;59.56;101543.38;5030549;28;20112;-76
2023/05/05 09:23:19;;;;;;;6.93;3.53;;;;;;;20.61;59.96;101543.03;5023644;28;20032;-76
2023/05/05 09:26:11;;;;;;;7.50;4.15;;;;;;;20.60;59.85;101547.56;5029825;28;20113;-76
2023/05/05 09:28:37;;;;;;;9.50;4.20;;;;;;;20.55;60.64;101546.38;5022516;28;20034;-76
2023/05/05 09:31:14;;;;;;;7.60;4.28;;;;;;;20.45;61.25;101548.34;5030700;28;20108;-76
2023/05/05 09:33:40;;;;;;;8.88;4.13;;;;;;;20.37;60.97;101548.25;5031071;28;20431;-76
2023/05/05 09:36:06;;;;;;;9.20;4.15;;;;;;;20.12;61.72;101550.81;5029721;28;20033;-76
2023/05/05 09:38:33;;;;;;;8.13;4.60;;;;;;;20.02;61.96;101550.94;5031173;28;20033;-76
2023/05/05 09:40:58;;;;;;;11.32;4.65;;;;;;;19.89;62.59;101550.47;5029323;28;20068;-76
2023/05/05 09:43:24;;;;;;;7.80;4.40;;;;;;;19.95;62.11;101543.66;5021930;28;20067;-76
2023/05/05 09:45:50;;;;;;;7.28;3.85;;;;;;;19.94;63.57;101542.00;5029911;28;20025;-76
2023/05/05 09:48:25;;;;;;;7.00;4.20;;;;;;;19.87;63.33;101544.47;5030687;28;20072;-76
2023/05/05 09:50:51;;;;;;;8.57;3.90;;;;;;;19.80;64.95;101547.91;5031338;28;20028;-76
2023/05/05 09:53:17;;;;;;;7.60;3.80;;;;;;;19.64;66.99;101551.31;5031087;28;20033;-76
2023/05/05 09:55:56;;;;;;;8.27;3.60;;;;;;;19.56;71.64;101544.06;5031565;28;20021;-76
2023/05/05 09:58:30;;;;;;;10.63;4.32;;;;;;;19.32;71.83;101555.34;5030130;28;20478;-76
2023/05/05 10:00:57;;;;;;;8.93;4.60;;;;;;;19.05;74.50;101550.06;5024996;28;20021;-77
2023/05/05 10:03:26;;;;;;;7.95;4.53;;;;;;;19.06;73.65;101546.41;5030253;28;20021;-75
2023/05/05 10:05:53;;;;;;;6.22;4.05;;;;;;;18.97;74.97;101548.16;5030960;28;20520;-75
2023/05/05 10:08:26;;;;;;;6.68;4.68;;;;;;;18.79;76.60;101549.94;5036475;28;20025;-75
2023/05/05 10:10:55;;;;;;;8.77;5.10;;;;;;;18.69;77.39;101549.19;5031214;28;20390;-75
2023/05/05 10:13:24;;;;;;;8.90;4.88;;;;;;;18.46;78.94;101559.38;5016998;28;20072;-75
2023/05/05 10:15:51;;;;;;;11.13;5.28;;;;;;;18.31;81.23;101556.34;5025932;28;20034;-75
2023/05/05 10:18:25;;;;;;;11.07;5.70;;;;;;;18.19;83.40;101546.00;5018866;28;20017;-75
2023/05/05 10:20:57;;;;;;;10.48;5.90;;;;;;;18.25;82.20;101548.09;5029038;28;20036;-75
2023/05/05 10:23:34;;;;;;;8.88;5.07;;;;;;;18.29;83.12;101547.66;5028577;28;20096;-75
2023/05/05 10:26:03;;;;;;;9.07;5.63;;;;;;;18.19;83.49;101546.84;5033814;28;20025;-75
2023/05/05 10:28:36;;;;;;;8.95;6.00;;;;;;;18.22;83.88;101545.72;5029087;28;20095;-75
2023/05/05 10:31:05;;;;;;;;;;;;;;;18.39;79.79;101559.09;5028468;28;20041;-75
2023/05/05 10:33:49;;;;;;;10.80;6.60;;;;;;;18.07;85.58;101558.69;5025647;28;19995;-75
2023/05/05 10:36:15;;;;;;;13.55;7.13;;;;;;;17.81;88.34;101569.09;5020470;28;20032;-75
2023/05/05 10:38:41;;;;;;;11.23;7.35;;;;;;;17.90;89.69;101573.56;5029617;28;20021;-75
2023/05/05 10:41:12;;;;;;;9.48;6.30;;;;;;;17.79;90.44;101571.06;5029352;28;20119;-75
2023/05/05 10:43:38;;;;;;;10.40;6.47;;;;;;;17.69;87.93;101576.41;5027336;28;20041;-75
2023/05/05 10:46:05;;;;;;;8.55;6.00;;;;;;;17.58;87.46;101576.50;5029815;28;20032;-74
2023/05/05 10:48:35;;;;;;;8.38;5.88;;;;;;;17.59;89.47;101574.69;5028142;28;20067;-74
2023/05/05 10:51:14;;;;;;;8.35;5.70;;;;;;;17.44;88.06;101583.09;5028243;28;20038;-75
2023/05/05 10:53:57;;;;;;;10.60;5.70;;;;;;;17.33;89.25;101577.06;5026516;28;20478;-75
2023/05/05 10:56:33;;;;;;;10.90;5.78;;;;;;;17.19;92.24;101568.50;5027760;28;20402;-75
2023/05/05 10:59:01;;;;;;;8.10;5.40;;;;;;;16.97;93.25;101573.25;5019563;28;20033;-75
2023/05/05 11:01:34;;;;;;;8.95;5.97;;;;;;;16.95;94.90;101581.38;5026361;28;20482;-73
2023/05/05 11:04:20;;;;;;;9.88;6.15;;;;;;;16.97;94.51;101581.22;5029200;28;20025;-73
2023/05/05 11:07:25;;;;;;;9.40;6.63;;;;;;;16.96;95.26;101590.19;5027582;28;20040;-73
2023/05/05 11:10:00;;;;;;;10.45;6.85;;;;;;;16.85;97.49;101591.13;5017703;28;20045;-73
2023/05/05 11:12:26;;;;;;;10.25;6.95;;;;;;;16.72;99.02;101591.34;5023510;28;20389;-72
2023/05/05 11:15:25;;;;;;;10.60;7.45;;;;;;;16.79;100.00;101592.50;5025712;28;20029;-72
2023/05/05 11:17:52;;;;;;;11.60;7.80;;;;;;;16.71;99.93;101589.69;5027463;28;20025;-73
2023/05/05 11:20:38;;;;;;;12.30;7.10;;;;;;;16.57;98.35;101598.00;5027994;28;20429;-73
2023/05/05 11:23:03;;;;;;;11.15;7.60;;;;;;;16.32;100.00;101587.81;5015311;28;20018;-74